This is the latest recevied weather packets stored in our database for station/object DG4DAA-13. If no packets are shown the sender has not sent any weather packets the latest 10 day(s).
| Time | Temp. | Humidity | Pressure | Rain* | Wind** | Luminosity | Snow |
|---|---|---|---|---|---|---|---|
| 1777655311 | 23.33° C | 37% | 1024.5 hPa | 0 mm | - | - | - |
| 1777653511 | 23.33° C | 36% | 1024.7 hPa | 0 mm | - | - | - |
| 1777651711 | 23.33° C | 35% | 1024.8 hPa | 0 mm | - | - | - |
| 1777649911 | 23.89° C | 35% | 1025.1 hPa | 0 mm | - | - | - |
| 1777648111 | 23.89° C | 35% | 1025.4 hPa | 0 mm | - | - | - |
| 1777646312 | 23.89° C | 35% | 1025.7 hPa | 0 mm | - | - | - |
| 1777644511 | 23.89° C | 35% | 1026.1 hPa | 0 mm | - | - | - |
| 1777642711 | 23.33° C | 35% | 1026.5 hPa | 0 mm | - | - | - |
| 1777640911 | 23.33° C | 37% | 1026.9 hPa | 0 mm | - | - | - |
| 1777639111 | 23.89° C | 36% | 1027.4 hPa | 0 mm | - | - | - |
| 1777637312 | 23.33° C | 35% | 1027.7 hPa | 0 mm | - | - | - |
| 1777635512 | 22.22° C | 37% | 1028 hPa | 0 mm | - | - | - |
| 1777633712 | 21.67° C | 38% | 1028.3 hPa | 0 mm | - | - | - |
| 1777631912 | 21.67° C | 38% | 1028.9 hPa | 0 mm | - | - | - |
| 1777630112 | 21.11° C | 38% | 1028.9 hPa | 0 mm | - | - | - |
| 1777628312 | 21.11° C | 39% | 1029.2 hPa | 0 mm | - | - | - |
| 1777626513 | 20° C | 43% | 1029.5 hPa | 0 mm | - | - | - |
| 1777624712 | 18.89° C | 49% | 1029.6 hPa | 0 mm | - | - | - |
| 1777622912 | 17.22° C | 53% | 1029.9 hPa | 0 mm | - | - | - |
| 1777621112 | 15.56° C | 55% | 1029.9 hPa | 0 mm | - | - | - |
| 1777617513 | 13.33° C | 61% | 1030.1 hPa | 0 mm | - | - | - |
| 1777615756 | 12.22° C | 63% | 1030.4 hPa | 0 mm | - | - | - |
| 1777615712 | 12.22° C | 63% | 1030.4 hPa | 0 mm | - | - | - |
| 1777613912 | 10° C | 68% | 1030.3 hPa | 0 mm | - | - | - |
| 1777610350 | 7.22° C | 72% | 1030 hPa | 0 mm | - | - | - |
* Rain latest hour (hover to see other rain measurements)
** Current wind speed in m/s (hover to see current wind gust speed)